sensor_id;sensor_type;location;lat;lon;timestamp;pressure;altitude;pressure_sealevel;temperature;humidity
26859;BME280;14429;48.346;16.338;2022-07-06T00:00:32;99963.00;;;25.07;50.00
26859;BME280;14429;48.346;16.338;2022-07-06T00:02:57;99955.78;;;25.63;51.66
26859;BME280;14429;48.346;16.338;2022-07-06T00:05:23;99968.03;;;24.53;49.90
26859;BME280;14429;48.346;16.338;2022-07-06T00:07:48;99956.53;;;25.57;52.10
26859;BME280;14429;48.346;16.338;2022-07-06T00:10:14;99951.44;;;25.54;50.33
26859;BME280;14429;48.346;16.338;2022-07-06T00:12:40;99954.25;;;25.11;48.93
26859;BME280;14429;48.346;16.338;2022-07-06T00:15:06;99947.84;;;25.68;51.75
26859;BME280;14429;48.346;16.338;2022-07-06T00:17:32;99955.09;;;24.83;48.48
26859;BME280;14429;48.346;16.338;2022-07-06T00:19:57;99956.19;;;24.74;53.80
26859;BME280;14429;48.346;16.338;2022-07-06T00:22:23;99955.81;;;25.34;52.59
26859;BME280;14429;48.346;16.338;2022-07-06T00:24:48;99950.78;;;25.03;53.10
26859;BME280;14429;48.346;16.338;2022-07-06T00:27:13;99955.16;;;25.81;51.22
26859;BME280;14429;48.346;16.338;2022-07-06T00:29:40;99958.28;;;26.20;50.20
26859;BME280;14429;48.346;16.338;2022-07-06T00:32:06;99965.13;;;26.30;49.88
26859;BME280;14429;48.346;16.338;2022-07-06T00:34:32;99988.16;;;25.66;51.32
26859;BME280;14429;48.346;16.338;2022-07-06T00:36:57;99982.06;;;25.84;50.79
26859;BME280;14429;48.346;16.338;2022-07-06T00:39:23;99977.88;;;25.18;49.78
26859;BME280;14429;48.346;16.338;2022-07-06T00:41:48;99973.56;;;24.81;52.31
26859;BME280;14429;48.346;16.338;2022-07-06T00:44:14;99979.41;;;25.07;52.57
26859;BME280;14429;48.346;16.338;2022-07-06T00:46:41;99990.56;;;25.40;52.32
26859;BME280;14429;48.346;16.338;2022-07-06T00:49:06;99987.00;;;24.97;52.33
26859;BME280;14429;48.346;16.338;2022-07-06T00:51:35;99974.72;;;25.50;52.21
26859;BME280;14429;48.346;16.338;2022-07-06T00:54:04;99978.50;;;25.84;51.25
26859;BME280;14429;48.346;16.338;2022-07-06T00:56:30;99970.13;;;25.36;51.49
26859;BME280;14429;48.346;16.338;2022-07-06T00:58:56;99973.78;;;25.92;50.84
26859;BME280;14429;48.346;16.338;2022-07-06T01:01:22;99965.66;;;24.86;53.91
26859;BME280;14429;48.346;16.338;2022-07-06T01:03:49;99968.16;;;25.44;51.80
26859;BME280;14429;48.346;16.338;2022-07-06T01:06:15;99966.38;;;25.72;51.63
26859;BME280;14429;48.346;16.338;2022-07-06T01:08:40;99968.91;;;24.31;55.14
26859;BME280;14429;48.346;16.338;2022-07-06T01:11:06;99973.66;;;24.37;55.19
26859;BME280;14429;48.346;16.338;2022-07-06T01:13:32;99976.69;;;21.99;62.45
26859;BME280;14429;48.346;16.338;2022-07-06T01:15:59;99967.94;;;21.41;63.61
26859;BME280;14429;48.346;16.338;2022-07-06T01:18:24;99979.41;;;21.84;64.22
26859;BME280;14429;48.346;16.338;2022-07-06T01:20:51;99979.41;;;20.79;65.47
26859;BME280;14429;48.346;16.338;2022-07-06T01:23:29;99976.16;;;22.59;62.32
26859;BME280;14429;48.346;16.338;2022-07-06T01:25:54;99967.75;;;22.92;60.14
26859;BME280;14429;48.346;16.338;2022-07-06T01:28:20;99963.94;;;24.12;56.82
26859;BME280;14429;48.346;16.338;2022-07-06T01:30:45;99969.47;;;24.63;55.23
26859;BME280;14429;48.346;16.338;2022-07-06T01:33:11;99966.81;;;23.45;56.44
26859;BME280;14429;48.346;16.338;2022-07-06T01:35:37;99968.56;;;23.90;55.79
26859;BME280;14429;48.346;16.338;2022-07-06T01:38:05;99959.63;;;23.81;56.76
26859;BME280;14429;48.346;16.338;2022-07-06T01:40:30;99967.03;;;22.98;58.34
26859;BME280;14429;48.346;16.338;2022-07-06T01:42:55;99967.91;;;22.13;62.47
26859;BME280;14429;48.346;16.338;2022-07-06T01:45:21;99968.25;;;22.95;60.55
26859;BME280;14429;48.346;16.338;2022-07-06T01:47:46;99955.56;;;22.72;60.20
26859;BME280;14429;48.346;16.338;2022-07-06T01:50:12;99956.53;;;23.62;58.77
26859;BME280;14429;48.346;16.338;2022-07-06T01:52:37;99946.09;;;24.46;55.65
26859;BME280;14429;48.346;16.338;2022-07-06T01:55:05;99946.41;;;25.22;53.54
26859;BME280;14429;48.346;16.338;2022-07-06T01:57:30;99948.47;;;25.49;52.56
26859;BME280;14429;48.346;16.338;2022-07-06T01:59:56;99932.66;;;25.30;52.54
26859;BME280;14429;48.346;16.338;2022-07-06T02:02:21;99947.59;;;23.90;55.88
26859;BME280;14429;48.346;16.338;2022-07-06T02:04:47;99949.88;;;23.35;58.83
26859;BME280;14429;48.346;16.338;2022-07-06T02:07:12;99959.53;;;24.11;56.27
26859;BME280;14429;48.346;16.338;2022-07-06T02:09:37;99959.75;;;24.61;54.99
26859;BME280;14429;48.346;16.338;2022-07-06T02:12:05;99965.81;;;25.27;53.08
26859;BME280;14429;48.346;16.338;2022-07-06T02:14:31;99968.78;;;25.61;52.01
26859;BME280;14429;48.346;16.338;2022-07-06T02:16:56;99971.13;;;25.84;51.37
26859;BME280;14429;48.346;16.338;2022-07-06T02:19:21;99971.34;;;25.83;51.36
26859;BME280;14429;48.346;16.338;2022-07-06T02:21:47;99977.13;;;25.94;51.09
26859;BME280;14429;48.346;16.338;2022-07-06T02:24:13;99982.31;;;26.03;50.67
26859;BME280;14429;48.346;16.338;2022-07-06T02:26:38;99981.16;;;26.12;50.53
26859;BME280;14429;48.346;16.338;2022-07-06T02:29:05;99992.34;;;26.17;50.25
26859;BME280;14429;48.346;16.338;2022-07-06T02:31:30;100000.41;;;26.25;49.98
26859;BME280;14429;48.346;16.338;2022-07-06T02:33:56;99990.13;;;26.27;49.90
26859;BME280;14429;48.346;16.338;2022-07-06T02:36:21;99994.31;;;25.53;50.23
26859;BME280;14429;48.346;16.338;2022-07-06T02:38:47;99997.94;;;26.09;50.44
26859;BME280;14429;48.346;16.338;2022-07-06T02:41:12;100003.50;;;24.89;51.93
26859;BME280;14429;48.346;16.338;2022-07-06T02:43:38;100011.06;;;25.65;51.72
26859;BME280;14429;48.346;16.338;2022-07-06T02:46:05;100014.88;;;25.84;51.13
26859;BME280;14429;48.346;16.338;2022-07-06T02:48:30;100004.53;;;25.45;49.74
26859;BME280;14429;48.346;16.338;2022-07-06T02:50:56;100002.38;;;23.81;55.38
26859;BME280;14429;48.346;16.338;2022-07-06T02:53:21;99997.44;;;24.79;54.23
26859;BME280;14429;48.346;16.338;2022-07-06T02:55:46;100004.03;;;25.27;52.89
26859;BME280;14429;48.346;16.338;2022-07-06T02:58:12;100012.97;;;25.36;52.04
26859;BME280;14429;48.346;16.338;2022-07-06T03:00:37;100009.53;;;24.99;53.37
26859;BME280;14429;48.346;16.338;2022-07-06T03:03:04;100004.53;;;25.45;52.18
26859;BME280;14429;48.346;16.338;2022-07-06T03:05:30;99998.34;;;25.43;50.11
26859;BME280;14429;48.346;16.338;2022-07-06T03:07:55;99987.28;;;25.79;51.18
26859;BME280;14429;48.346;16.338;2022-07-06T03:10:21;100004.22;;;25.40;51.46
26859;BME280;14429;48.346;16.338;2022-07-06T03:12:46;99993.28;;;25.89;50.79
26859;BME280;14429;48.346;16.338;2022-07-06T03:15:12;99997.59;;;25.98;50.57
26859;BME280;14429;48.346;16.338;2022-07-06T03:17:37;99999.50;;;25.63;51.41
26859;BME280;14429;48.346;16.338;2022-07-06T03:20:05;99992.13;;;25.98;50.50
26859;BME280;14429;48.346;16.338;2022-07-06T03:22:31;100004.81;;;25.21;52.79
26859;BME280;14429;48.346;16.338;2022-07-06T03:24:56;100000.09;;;24.14;53.06
26859;BME280;14429;48.346;16.338;2022-07-06T03:27:22;100001.16;;;23.61;55.13
26859;BME280;14429;48.346;16.338;2022-07-06T03:29:47;100003.94;;;23.98;55.32
26859;BME280;14429;48.346;16.338;2022-07-06T03:32:19;100002.25;;;25.06;53.34
26859;BME280;14429;48.346;16.338;2022-07-06T03:34:44;100006.28;;;25.38;52.24
26859;BME280;14429;48.346;16.338;2022-07-06T03:37:11;99992.31;;;25.62;51.61
26859;BME280;14429;48.346;16.338;2022-07-06T03:39:37;99999.50;;;25.63;51.50
26859;BME280;14429;48.346;16.338;2022-07-06T03:42:03;99985.16;;;25.61;51.12
26859;BME280;14429;48.346;16.338;2022-07-06T03:44:28;99987.72;;;25.62;49.89
26859;BME280;14429;48.346;16.338;2022-07-06T03:46:54;99996.47;;;24.72;53.11
26859;BME280;14429;48.346;16.338;2022-07-06T03:49:19;99990.63;;;25.61;51.39
26859;BME280;14429;48.346;16.338;2022-07-06T03:51:45;99993.22;;;24.91;52.69
26859;BME280;14429;48.346;16.338;2022-07-06T03:54:11;99995.72;;;25.64;51.52
26859;BME280;14429;48.346;16.338;2022-07-06T03:56:37;100003.72;;;24.65;52.98
26859;BME280;14429;48.346;16.338;2022-07-06T03:59:02;99997.53;;;25.57;51.42
26859;BME280;14429;48.346;16.338;2022-07-06T04:01:28;99997.41;;;25.65;51.35
26859;BME280;14429;48.346;16.338;2022-07-06T04:03:53;99988.47;;;25.42;51.80
26859;BME280;14429;48.346;16.338;2022-07-06T04:06:19;99990.56;;;25.40;51.67
26859;BME280;14429;48.346;16.338;2022-07-06T04:08:45;99988.91;;;25.11;52.85
26859;BME280;14429;48.346;16.338;2022-07-06T04:11:12;99986.25;;;25.45;51.64
26859;BME280;14429;48.346;16.338;2022-07-06T04:13:37;99989.63;;;25.82;50.71
26859;BME280;14429;48.346;16.338;2022-07-06T04:16:03;99992.41;;;24.68;54.40
26859;BME280;14429;48.346;16.338;2022-07-06T04:18:29;99985.31;;;24.45;54.31
26859;BME280;14429;48.346;16.338;2022-07-06T04:20:54;99990.22;;;25.29;52.25
26859;BME280;14429;48.346;16.338;2022-07-06T04:23:20;99991.22;;;25.42;52.07
26859;BME280;14429;48.346;16.338;2022-07-06T04:25:45;99990.63;;;24.03;55.63
26859;BME280;14429;48.346;16.338;2022-07-06T04:28:12;99989.84;;;24.53;54.05
26859;BME280;14429;48.346;16.338;2022-07-06T04:30:38;99995.69;;;25.15;52.23
26859;BME280;14429;48.346;16.338;2022-07-06T04:33:03;99987.53;;;25.64;51.47
26859;BME280;14429;48.346;16.338;2022-07-06T04:35:28;99997.66;;;25.49;51.92
26859;BME280;14429;48.346;16.338;2022-07-06T04:37:54;99989.25;;;25.50;51.89
26859;BME280;14429;48.346;16.338;2022-07-06T04:40:19;99991.06;;;25.99;50.27
26859;BME280;14429;48.346;16.338;2022-07-06T04:42:45;99987.00;;;26.09;50.07
26859;BME280;14429;48.346;16.338;2022-07-06T04:45:12;99989.56;;;26.11;49.91
26859;BME280;14429;48.346;16.338;2022-07-06T04:47:38;99993.16;;;25.97;50.95
26859;BME280;14429;48.346;16.338;2022-07-06T04:50:04;99997.25;;;26.22;49.96
26859;BME280;14429;48.346;16.338;2022-07-06T04:52:29;99989.22;;;26.41;49.23
26859;BME280;14429;48.346;16.338;2022-07-06T04:54:55;99998.91;;;26.43;49.16
26859;BME280;14429;48.346;16.338;2022-07-06T04:57:21;99994.72;;;26.68;49.94
26859;BME280;14429;48.346;16.338;2022-07-06T04:59:46;99991.13;;;26.94;48.67
26859;BME280;14429;48.346;16.338;2022-07-06T05:02:13;99994.47;;;26.90;48.81
26859;BME280;14429;48.346;16.338;2022-07-06T05:04:38;99993.41;;;26.91;47.66
26859;BME280;14429;48.346;16.338;2022-07-06T05:07:04;99993.63;;;26.89;47.82
26859;BME280;14429;48.346;16.338;2022-07-06T05:09:30;99991.84;;;26.76;48.03
26859;BME280;14429;48.346;16.338;2022-07-06T05:11:55;99995.09;;;26.92;47.66
26859;BME280;14429;48.346;16.338;2022-07-06T05:14:21;99995.31;;;26.90;47.69
26859;BME280;14429;48.346;16.338;2022-07-06T05:16:46;99992.72;;;26.82;47.79
26859;BME280;14429;48.346;16.338;2022-07-06T05:19:13;99991.06;;;26.88;47.71
26859;BME280;14429;48.346;16.338;2022-07-06T05:21:38;100000.78;;;26.90;47.77
26859;BME280;14429;48.346;16.338;2022-07-06T05:24:11;100002.63;;;26.83;47.86
26859;BME280;14429;48.346;16.338;2022-07-06T05:26:37;100000.41;;;26.93;47.49
26859;BME280;14429;48.346;16.338;2022-07-06T05:29:02;100008.63;;;27.27;47.03
26859;BME280;14429;48.346;16.338;2022-07-06T05:31:28;100004.66;;;27.02;47.46
26859;BME280;14429;48.346;16.338;2022-07-06T05:33:53;99999.72;;;27.25;46.95
26859;BME280;14429;48.346;16.338;2022-07-06T05:36:20;99994.59;;;27.09;46.84
26859;BME280;14429;48.346;16.338;2022-07-06T05:38:45;100005.16;;;27.12;47.14
26859;BME280;14429;48.346;16.338;2022-07-06T05:41:11;100002.19;;;27.13;47.23
26859;BME280;14429;48.346;16.338;2022-07-06T05:43:36;100006.03;;;27.52;46.70
26859;BME280;14429;48.346;16.338;2022-07-06T05:46:02;100005.16;;;27.12;47.07
26859;BME280;14429;48.346;16.338;2022-07-06T05:48:27;100003.94;;;26.87;47.73
26859;BME280;14429;48.346;16.338;2022-07-06T05:50:53;99998.66;;;26.86;47.72
26859;BME280;14429;48.346;16.338;2022-07-06T05:53:20;99999.41;;;27.40;46.93
26859;BME280;14429;48.346;16.338;2022-07-06T05:55:46;99996.38;;;27.23;47.23
26859;BME280;14429;48.346;16.338;2022-07-06T05:58:11;100002.16;;;27.07;47.08
26859;BME280;14429;48.346;16.338;2022-07-06T06:00:37;100006.47;;;26.89;47.68
26859;BME280;14429;48.346;16.338;2022-07-06T06:03:02;100016.44;;;26.96;47.51
26859;BME280;14429;48.346;16.338;2022-07-06T06:05:28;100030.06;;;26.90;47.68
26859;BME280;14429;48.346;16.338;2022-07-06T06:07:53;100046.16;;;26.99;47.68
26859;BME280;14429;48.346;16.338;2022-07-06T06:10:21;100051.97;;;27.17;47.30
26859;BME280;14429;48.346;16.338;2022-07-06T06:12:46;100049.84;;;26.65;48.36
26859;BME280;14429;48.346;16.338;2022-07-06T06:15:12;100045.41;;;26.64;48.53
26859;BME280;14429;48.346;16.338;2022-07-06T06:17:38;100055.22;;;26.52;48.73
26859;BME280;14429;48.346;16.338;2022-07-06T06:20:05;100067.72;;;26.61;48.68
26859;BME280;14429;48.346;16.338;2022-07-06T06:22:31;100062.13;;;26.69;48.56
26859;BME280;14429;48.346;16.338;2022-07-06T06:24:57;100064.72;;;26.77;49.07
26859;BME280;14429;48.346;16.338;2022-07-06T06:27:23;100065.34;;;26.58;48.76
26859;BME280;14429;48.346;16.338;2022-07-06T06:29:49;100058.25;;;26.63;48.57
26859;BME280;14429;48.346;16.338;2022-07-06T06:32:14;100066.94;;;26.46;49.05
26859;BME280;14429;48.346;16.338;2022-07-06T06:34:40;100058.03;;;26.38;49.27
26859;BME280;14429;48.346;16.338;2022-07-06T06:37:05;100059.09;;;26.43;49.09
26859;BME280;14429;48.346;16.338;2022-07-06T06:39:31;100056.81;;;26.47;49.09
26859;BME280;14429;48.346;16.338;2022-07-06T06:41:57;100059.38;;;26.48;48.99
26859;BME280;14429;48.346;16.338;2022-07-06T06:44:24;100060.63;;;26.46;49.05
26859;BME280;14429;48.346;16.338;2022-07-06T06:46:49;100057.22;;;26.44;49.11
26859;BME280;14429;48.346;16.338;2022-07-06T06:49:15;100048.75;;;26.59;48.62
26859;BME280;14429;48.346;16.338;2022-07-06T06:51:40;100046.00;;;26.59;48.78
26859;BME280;14429;48.346;16.338;2022-07-06T06:54:06;100043.03;;;26.75;48.31
26859;BME280;14429;48.346;16.338;2022-07-06T06:56:31;100031.84;;;26.77;48.17
26859;BME280;14429;48.346;16.338;2022-07-06T06:58:57;100033.25;;;26.66;48.54
26859;BME280;14429;48.346;16.338;2022-07-06T07:01:24;100026.53;;;26.69;48.31
26859;BME280;14429;48.346;16.338;2022-07-06T07:03:50;100023.31;;;26.65;48.39
26859;BME280;14429;48.346;16.338;2022-07-06T07:06:16;100026.97;;;26.72;48.28
26859;BME280;14429;48.346;16.338;2022-07-06T07:08:41;100028.78;;;26.65;48.39
26859;BME280;14429;48.346;16.338;2022-07-06T07:11:07;100024.06;;;26.53;48.35
26859;BME280;14429;48.346;16.338;2022-07-06T07:13:32;100034.31;;;26.45;48.56
26859;BME280;14429;48.346;16.338;2022-07-06T07:15:58;100030.66;;;26.38;48.76
26859;BME280;14429;48.346;16.338;2022-07-06T07:18:24;100032.25;;;26.74;47.96
26859;BME280;14429;48.346;16.338;2022-07-06T07:20:50;100022.47;;;26.65;48.21
26859;BME280;14429;48.346;16.338;2022-07-06T07:23:15;100022.84;;;26.62;48.03
26859;BME280;14429;48.346;16.338;2022-07-06T07:25:41;100019.09;;;26.63;48.17
26859;BME280;14429;48.346;16.338;2022-07-06T07:28:07;100024.53;;;26.83;47.74
26859;BME280;14429;48.346;16.338;2022-07-06T07:30:32;100022.16;;;26.74;47.88
26859;BME280;14429;48.346;16.338;2022-07-06T07:32:58;100012.09;;;26.81;47.75
26859;BME280;14429;48.346;16.338;2022-07-06T07:35:24;100001.69;;;26.97;47.30
26859;BME280;14429;48.346;16.338;2022-07-06T07:37:50;99991.84;;;26.76;47.68
26859;BME280;14429;48.346;16.338;2022-07-06T07:40:16;99989.06;;;27.03;47.05
26859;BME280;14429;48.346;16.338;2022-07-06T07:42:41;99995.47;;;27.16;46.43
26859;BME280;14429;48.346;16.338;2022-07-06T07:45:07;99988.50;;;27.13;46.90
26859;BME280;14429;48.346;16.338;2022-07-06T07:47:33;99996.28;;;27.10;46.92
26859;BME280;14429;48.346;16.338;2022-07-06T07:49:58;99997.56;;;27.14;46.77
26859;BME280;14429;48.346;16.338;2022-07-06T07:52:25;100000.69;;;27.11;46.21
26859;BME280;14429;48.346;16.338;2022-07-06T07:54:51;100005.09;;;27.06;46.98
26859;BME280;14429;48.346;16.338;2022-07-06T07:57:16;100009.78;;;26.84;47.10
26859;BME280;14429;48.346;16.338;2022-07-06T07:59:42;100021.34;;;26.80;47.53
26859;BME280;14429;48.346;16.338;2022-07-06T08:02:07;100024.78;;;26.88;47.40
26859;BME280;14429;48.346;16.338;2022-07-06T08:04:33;100018.28;;;26.89;47.64
26859;BME280;14429;48.346;16.338;2022-07-06T08:06:58;100023.59;;;26.97;47.41
26859;BME280;14429;48.346;16.338;2022-07-06T08:09:25;100018.44;;;26.81;47.24
26859;BME280;14429;48.346;16.338;2022-07-06T08:11:50;100011.66;;;26.78;46.78
26859;BME280;14429;48.346;16.338;2022-07-06T08:14:16;100022.19;;;26.80;47.68
26859;BME280;14429;48.346;16.338;2022-07-06T08:16:42;100024.47;;;26.77;47.42
26859;BME280;14429;48.346;16.338;2022-07-06T08:19:07;100024.94;;;26.80;47.86
26859;BME280;14429;48.346;16.338;2022-07-06T08:21:33;100030.41;;;26.80;47.72
26859;BME280;14429;48.346;16.338;2022-07-06T08:23:58;100033.41;;;26.85;47.52
26859;BME280;14429;48.346;16.338;2022-07-06T08:26:25;100034.34;;;26.72;47.79
26859;BME280;14429;48.346;16.338;2022-07-06T08:28:50;100045.56;;;26.77;47.68
26859;BME280;14429;48.346;16.338;2022-07-06T08:31:16;100045.16;;;26.80;45.50
26859;BME280;14429;48.346;16.338;2022-07-06T08:33:41;100043.19;;;26.74;47.35
26859;BME280;14429;48.346;16.338;2022-07-06T08:36:07;100053.75;;;26.77;45.67
26859;BME280;14429;48.346;16.338;2022-07-06T08:38:32;100047.78;;;26.67;45.61
26859;BME280;14429;48.346;16.338;2022-07-06T08:40:57;100056.63;;;26.27;48.43
26859;BME280;14429;48.346;16.338;2022-07-06T08:43:25;100058.78;;;26.32;46.31
26859;BME280;14429;48.346;16.338;2022-07-06T08:45:53;100057.19;;;26.37;48.43
26859;BME280;14429;48.346;16.338;2022-07-06T08:48:19;100064.06;;;26.54;48.13
26859;BME280;14429;48.346;16.338;2022-07-06T08:50:47;100063.47;;;26.17;48.93
26859;BME280;14429;48.346;16.338;2022-07-06T08:53:13;100071.22;;;26.55;48.33
26859;BME280;14429;48.346;16.338;2022-07-06T08:55:39;100065.34;;;26.58;48.15
26859;BME280;14429;48.346;16.338;2022-07-06T08:58:04;100052.34;;;26.60;48.16
26859;BME280;14429;48.346;16.338;2022-07-06T09:00:32;100058.47;;;26.41;48.36
26859;BME280;14429;48.346;16.338;2022-07-06T09:02:58;100056.50;;;26.56;48.19
26859;BME280;14429;48.346;16.338;2022-07-06T09:05:23;100046.09;;;26.45;47.17
26859;BME280;14429;48.346;16.338;2022-07-06T09:07:50;100047.25;;;26.57;46.84
26859;BME280;14429;48.346;16.338;2022-07-06T09:10:17;100049.19;;;26.83;47.29
26859;BME280;14429;48.346;16.338;2022-07-06T09:12:42;100037.41;;;26.83;47.18
26859;BME280;14429;48.346;16.338;2022-07-06T09:15:08;100038.97;;;26.98;47.10
26859;BME280;14429;48.346;16.338;2022-07-06T09:17:38;100024.97;;;27.14;46.48
26859;BME280;14429;48.346;16.338;2022-07-06T09:20:06;100026.75;;;27.28;46.45
26859;BME280;14429;48.346;16.338;2022-07-06T09:22:32;100043.19;;;27.28;46.19
26859;BME280;14429;48.346;16.338;2022-07-06T09:25:02;100039.38;;;27.22;46.38
26859;BME280;14429;48.346;16.338;2022-07-06T09:27:28;100039.78;;;27.26;45.55
26859;BME280;14429;48.346;16.338;2022-07-06T09:29:54;100040.56;;;27.13;45.47
26859;BME280;14429;48.346;16.338;2022-07-06T09:32:20;100038.94;;;27.19;45.32
26859;BME280;14429;48.346;16.338;2022-07-06T09:34:47;100044.59;;;27.17;46.45
26859;BME280;14429;48.346;16.338;2022-07-06T09:37:13;100036.50;;;27.36;46.28
26859;BME280;14429;48.346;16.338;2022-07-06T09:39:40;100044.94;;;27.35;46.47
26859;BME280;14429;48.346;16.338;2022-07-06T09:42:06;100054.16;;;27.28;49.35
26859;BME280;14429;48.346;16.338;2022-07-06T09:44:34;100048.88;;;26.99;48.55
26859;BME280;14429;48.346;16.338;2022-07-06T09:47:01;100056.72;;;26.34;51.56
26859;BME280;14429;48.346;16.338;2022-07-06T09:49:28;100039.69;;;26.18;52.24
26859;BME280;14429;48.346;16.338;2022-07-06T09:51:57;100043.75;;;26.42;50.52
26859;BME280;14429;48.346;16.338;2022-07-06T09:54:24;100047.72;;;26.05;50.54
26859;BME280;14429;48.346;16.338;2022-07-06T09:56:50;100046.19;;;25.96;51.27
26859;BME280;14429;48.346;16.338;2022-07-06T09:59:20;100047.50;;;26.21;50.42
26859;BME280;14429;48.346;16.338;2022-07-06T10:01:46;100042.44;;;26.38;49.82
26859;BME280;14429;48.346;16.338;2022-07-06T10:04:13;100041.09;;;25.93;50.02
26859;BME280;14429;48.346;16.338;2022-07-06T10:06:39;100033.63;;;25.67;50.97
26859;BME280;14429;48.346;16.338;2022-07-06T10:09:07;100029.59;;;25.83;50.82
26859;BME280;14429;48.346;16.338;2022-07-06T10:11:35;100038.78;;;25.62;51.63
26859;BME280;14429;48.346;16.338;2022-07-06T10:14:03;100036.84;;;25.91;48.83
26859;BME280;14429;48.346;16.338;2022-07-06T10:16:30;100038.44;;;25.99;49.65
26859;BME280;14429;48.346;16.338;2022-07-06T10:18:56;100036.75;;;25.84;47.51
26859;BME280;14429;48.346;16.338;2022-07-06T10:21:22;100030.25;;;26.41;49.68
26859;BME280;14429;48.346;16.338;2022-07-06T10:23:48;100033.31;;;26.52;48.83
26859;BME280;14429;48.346;16.338;2022-07-06T10:26:16;100040.56;;;26.66;47.88
26859;BME280;14429;48.346;16.338;2022-07-06T10:28:42;100034.22;;;26.59;48.71
26859;BME280;14429;48.346;16.338;2022-07-06T10:31:08;100031.66;;;26.57;44.69
26859;BME280;14429;48.346;16.338;2022-07-06T10:33:34;100033.06;;;26.68;44.68
26859;BME280;14429;48.346;16.338;2022-07-06T10:36:01;100030.88;;;26.63;44.87
26859;BME280;14429;48.346;16.338;2022-07-06T10:38:31;100025.09;;;26.31;43.78
26859;BME280;14429;48.346;16.338;2022-07-06T10:41:02;100033.19;;;26.39;47.95
26859;BME280;14429;48.346;16.338;2022-07-06T10:43:35;100037.59;;;26.61;46.36
26859;BME280;14429;48.346;16.338;2022-07-06T10:46:08;100039.78;;;26.92;47.66
26859;BME280;14429;48.346;16.338;2022-07-06T10:48:35;100047.13;;;26.85;45.63
26859;BME280;14429;48.346;16.338;2022-07-06T10:51:00;100052.28;;;27.01;46.29
26859;BME280;14429;48.346;16.338;2022-07-06T10:53:27;100043.84;;;27.03;43.34
26859;BME280;14429;48.346;16.338;2022-07-06T10:55:54;100043.53;;;27.18;43.50
26859;BME280;14429;48.346;16.338;2022-07-06T10:58:38;100047.91;;;27.34;44.32
26859;BME280;14429;48.346;16.338;2022-07-06T11:01:04;100049.63;;;27.41;41.81
26859;BME280;14429;48.346;16.338;2022-07-06T11:03:30;100045.78;;;27.82;44.74
26859;BME280;14429;48.346;16.338;2022-07-06T11:05:58;100043.19;;;28.07;41.40
26859;BME280;14429;48.346;16.338;2022-07-06T11:08:41;100037.66;;;27.94;43.54
26859;BME280;14429;48.346;16.338;2022-07-06T11:11:10;100029.75;;;27.06;40.39
26859;BME280;14429;48.346;16.338;2022-07-06T11:13:47;100031.19;;;27.68;44.74
26859;BME280;14429;48.346;16.338;2022-07-06T11:16:13;100042.75;;;28.10;44.32
26859;BME280;14429;48.346;16.338;2022-07-06T11:18:39;100056.84;;;27.88;43.54
26859;BME280;14429;48.346;16.338;2022-07-06T11:21:32;100054.59;;;28.04;40.95
26859;BME280;14429;48.346;16.338;2022-07-06T11:23:58;100055.47;;;28.17;44.03
26859;BME280;14429;48.346;16.338;2022-07-06T11:26:24;100050.41;;;28.34;43.81
26859;BME280;14429;48.346;16.338;2022-07-06T11:28:51;100055.50;;;28.37;43.67
26859;BME280;14429;48.346;16.338;2022-07-06T11:31:17;100043.03;;;28.28;43.36
26859;BME280;14429;48.346;16.338;2022-07-06T11:33:45;100044.09;;;28.27;43.05
26859;BME280;14429;48.346;16.338;2022-07-06T11:36:15;100055.66;;;28.22;43.20
26859;BME280;14429;48.346;16.338;2022-07-06T11:38:42;100054.22;;;28.20;40.82
26859;BME280;14429;48.346;16.338;2022-07-06T11:41:07;100054.25;;;28.39;43.46
26859;BME280;14429;48.346;16.338;2022-07-06T11:43:33;100052.75;;;28.37;43.58
26859;BME280;14429;48.346;16.338;2022-07-06T11:46:00;100054.00;;;28.28;43.51
26859;BME280;14429;48.346;16.338;2022-07-06T11:48:25;100045.84;;;28.47;43.65
26859;BME280;14429;48.346;16.338;2022-07-06T11:51:01;100043.69;;;28.43;43.25
26859;BME280;14429;48.346;16.338;2022-07-06T11:53:27;100046.63;;;28.35;43.82
26859;BME280;14429;48.346;16.338;2022-07-06T11:55:53;100037.31;;;28.29;43.63
26859;BME280;14429;48.346;16.338;2022-07-06T11:58:21;100041.19;;;28.47;43.50
26859;BME280;14429;48.346;16.338;2022-07-06T12:01:06;100019.44;;;28.46;42.88
26859;BME280;14429;48.346;16.338;2022-07-06T12:03:32;100027.91;;;28.57;43.02
26859;BME280;14429;48.346;16.338;2022-07-06T12:05:58;100022.63;;;28.49;43.42
26859;BME280;14429;48.346;16.338;2022-07-06T12:08:23;100028.09;;;28.49;41.02
26859;BME280;14429;48.346;16.338;2022-07-06T12:10:49;100027.47;;;28.60;42.87
26859;BME280;14429;48.346;16.338;2022-07-06T12:13:14;100024.69;;;28.35;37.28
26859;BME280;14429;48.346;16.338;2022-07-06T12:15:40;100030.19;;;28.47;43.05
26859;BME280;14429;48.346;16.338;2022-07-06T12:18:07;100037.13;;;28.43;42.81
26859;BME280;14429;48.346;16.338;2022-07-06T12:20:32;100038.47;;;27.89;38.80
26859;BME280;14429;48.346;16.338;2022-07-06T12:23:01;100033.53;;;28.37;43.11
26859;BME280;14429;48.346;16.338;2022-07-06T12:25:30;100029.09;;;27.70;38.95
26859;BME280;14429;48.346;16.338;2022-07-06T12:27:55;100029.69;;;27.60;41.39
26859;BME280;14429;48.346;16.338;2022-07-06T12:30:21;100031.59;;;26.99;38.85
26859;BME280;14429;48.346;16.338;2022-07-06T12:32:46;100025.34;;;27.05;44.64
26859;BME280;14429;48.346;16.338;2022-07-06T12:35:13;100018.66;;;27.87;44.86
26859;BME280;14429;48.346;16.338;2022-07-06T12:37:54;100012.66;;;27.77;38.32